KRMY

Brooks Field Airport

Marshall, Michigan, USA
METAR KRMY 211955Z AUTO 00000KT 1 1/4SM BR OVC003 04/03 A2996 RMK AO2 T00350032
Observed Flight Rules
Jan-21 @ 19:55 UTC (29 minutes ago) Instrument Flight Rules
Wind Visibility Clouds Conditions
Calm 1 1/4 miles
  • Overcast at 300' AGL
  • Mist
Temperatures Readings
Current 4°C / 39°F
Dewpoint 3°C / 37°F
Humidity 93%
Altimeter 29.96" Hg
Pressure 1015 hPa
Elevation 287
METAR KRMY 211955Z AUTO 00000KT 1 1/4SM BR OVC003 04/03 A2996 RMK AO2 T00350032
Observed Flight Rules
Jan-21 @ 19:55 UTC
(29 minutes ago)
LIFR
Wind Visibility
Calm 1 1/4 miles
Clouds
  • Overcast at 300' AGL
Conditions
  • Mist
Temperature Dewpoint
4°C / 39°F 3°C / 37°F
Humidity Altimeter Pressure
93% 29.96" Hg 1015 hPa